Terminal Aerodrome Forecast
Issued by NWS

Home | Current Version | Previous Version | Text Only | Print | Product List | Glossary On
Versions: 1 2 3 4 5 6 7 8 9 10 11 12 13 14
365
FTUS46 KLOX 300534
TAFOXR
TAF
KOXR 300534Z 3006/3106 VRB03KT P6SM SKC
     FM301700 27015KT P6SM SKC
     FM302100 28025G35KT P6SM SKC
     FM310300 28015G25KT P6SM SKC=

USA.gov is the U.S. government's official web portal to all federal, state and local government web resources and services.